Impacts TAF Board
For situational awareness. Not to be used for flight planning purposes.
IDs:

KPHL - Philadelphia Intl, PA, US

Issued at 2320 UTC 09 Dec 2018
Updated at 0441 UTC 10 Dec 2018
Potential Impact None Slight Moderate High
Time0354Z 10/05Z 10/06Z 10/07Z 10/08Z 10/09Z 10/10Z 10/11Z 10/12Z 10/13Z 10/14Z 10/15Z 10/16Z 10/17Z>>
Type OBS PRVL PRVL PRVL PRVL PRVL PRVL PRVL PRVL PRVL PRVL PRVL PRVL PRVL
VIS 10 >6 >6 >6 >6 >6 >6 >6 >6 >6 >6 >6 >6 >6
CIG 180 150 150 150 150 -- -- -- -- -- -- -- -- --
Cover OVC BKN BKN BKN BKN SCT SCT SCT SCT SCT SCT SCT SCT SCT
FltCat VFR VFR VFR VFR VFR VFR VFR VFR VFR VFR VFR VFR VFR VFR
WX -- -- -- -- -- -- -- -- -- -- -- -- -- --
WDir 360 350 350 350 350 360 360 360 360 360 360 360 360 360
WSpd 9 5 5 5 5 5 5 5 5 5 5 5 5 5
WGst -- -- -- -- -- -- -- -- -- -- -- -- -- --
Raw TAF
KPHL 092320Z 1000/1106 35005KT P6SM FEW035 BKN150
  FM100900 36005KT P6SM SCT200
  FM110400 VRB02KT P6SM FEW250


Raw METAR
KPHL 100354Z 36009KT 10SM FEW150 OVC180 M01/M09 A3017 RMK AO2 SLP214 T10061089 $
KPHL 100254Z 36003KT 10SM FEW150 OVC190 M01/M09 A3019 RMK AO2 SLP222 T10061089 56026 $
KPHL 100154Z 02003KT 10SM FEW035 OVC190 M01/M08 A3021 RMK AO2 SLP230 T10061083 $

METAR Board
Radar Display
Forecast Discussion
For situational awareness. Not to be used for flight planning purposes.